Time;durP1;ratioP1;P1;durP2;ratioP2;P2;SDS_P1;SDS_P2;PMS_P1;PMS_P2;Temp;Humidity;BMP_temperature;BMP_pressure;BME280_temperature;BME280_humidity;BME280_pressure;Samples;Min_cycle;Max_cycle;Signal;HPM_P1;HPM_P2
2023/08/04 00:00:46;;;;;;;8.10;4.30;;;;;;;23.04;57.79;99145.64;78457;1295;3054053;-73
2023/08/04 00:03:14;;;;;;;7.20;4.50;;;;;;;23.07;57.69;99148.33;79666;1294;3013764;-72
2023/08/04 00:05:40;;;;;;;7.10;4.60;;;;;;;23.04;57.85;99149.77;79617;1298;3011751;-71
2023/08/04 00:08:08;;;;;;;6.90;4.50;;;;;;;23.03;57.75;99146.86;78400;1298;3050403;-72
2023/08/04 00:10:34;;;;;;;7.40;4.00;;;;;;;23.01;57.98;99144.06;79611;1296;3013233;-70
2023/08/04 00:13:01;;;;;;;5.40;3.80;;;;;;;22.97;58.06;99146.93;79755;1295;3011632;-73
2023/08/04 00:15:29;;;;;;;6.20;4.20;;;;;;;22.97;57.88;99144.63;78664;1298;3025842;-72
2023/08/04 00:17:56;;;;;;;9.20;4.20;;;;;;;22.97;57.65;99146.94;79731;1298;3013508;-70
2023/08/04 00:20:22;;;;;;;6.30;3.90;;;;;;;22.98;58.07;99152.30;79802;1295;3011963;-72
2023/08/04 00:22:50;;;;;;;5.40;3.60;;;;;;;22.97;57.93;99153.23;78708;1295;3026696;-73
2023/08/04 00:25:17;;;;;;;6.10;3.80;;;;;;;22.97;58.27;99151.77;79619;1298;3013631;-74
2023/08/04 00:27:43;;;;;;;4.60;3.50;;;;;;;22.96;58.27;99151.41;79930;1298;3013147;-73
2023/08/04 00:30:11;;;;;;;6.50;3.60;;;;;;;22.94;58.39;99150.23;78457;1298;3028956;-72
2023/08/04 00:32:38;;;;;;;5.40;3.70;;;;;;;22.96;58.65;99151.08;79706;1295;3013418;-72
2023/08/04 00:35:05;;;;;;;5.40;3.80;;;;;;;22.97;58.67;99149.81;79597;1294;3011809;-71
2023/08/04 00:37:34;;;;;;;6.80;3.90;;;;;;;23.00;59.07;99157.77;78550;1295;3048924;-73
2023/08/04 00:40:01;;;;;;;5.30;3.10;;;;;;;23.00;58.82;99158.30;79815;1295;3012926;-69
2023/08/04 00:42:27;;;;;;;4.90;3.20;;;;;;;23.00;59.09;99158.02;79671;1298;3011577;-72
2023/08/04 00:44:55;;;;;;;3.50;2.70;;;;;;;23.02;59.46;99153.04;78326;1298;3053502;-71
2023/08/04 00:47:24;;;;;;;3.70;3.20;;;;;;;23.04;59.46;99151.73;79874;1294;3018469;-72
2023/08/04 00:49:53;;;;;;;3.50;2.70;;;;;;;23.05;59.49;99156.38;79138;1296;3013257;-71
2023/08/04 00:52:20;;;;;;;3.40;2.40;;;;;;;23.05;59.13;99160.67;79654;1294;3013086;-72
2023/08/04 00:54:46;;;;;;;4.00;2.70;;;;;;;23.04;59.09;99160.45;79577;1298;3012175;-72
2023/08/04 00:57:14;;;;;;;3.10;2.80;;;;;;;23.05;58.95;99157.98;78548;1298;3027992;-72
2023/08/04 00:59:41;;;;;;;3.30;2.60;;;;;;;23.07;58.92;99156.89;79802;1297;3012859;-74
2023/08/04 01:02:08;;;;;;;4.90;2.90;;;;;;;23.05;58.86;99158.48;79518;1296;3011849;-73
2023/08/04 01:04:36;;;;;;;4.70;2.60;;;;;;;23.07;58.61;99159.25;78699;1295;3029157;-72
2023/08/04 01:07:12;;;;;;;2.60;2.40;;;;;;;23.06;58.42;99161.86;79748;1298;3012802;-72
2023/08/04 01:09:51;;;;;;;2.80;2.50;;;;;;;23.06;57.91;99161.38;78344;1298;3054481;-70
2023/08/04 01:12:25;;;;;;;3.50;2.40;;;;;;;23.08;58.63;99163.26;78479;1298;3052017;-70
2023/08/04 01:14:53;;;;;;;4.50;3.40;;;;;;;23.07;58.26;99165.93;79509;1296;3013259;-73
2023/08/04 01:17:31;;;;;;;3.20;2.70;;;;;;;23.09;58.18;99170.45;78377;1295;3051024;-72
2023/08/04 01:19:58;;;;;;;3.20;2.30;;;;;;;23.08;57.86;99171.75;78519;1298;3069425;-72
2023/08/04 01:22:25;;;;;;;4.20;3.00;;;;;;;23.06;58.55;99170.73;79724;1295;3019116;-70
2023/08/04 01:24:52;;;;;;;5.60;3.30;;;;;;;23.06;58.84;99171.81;79449;1298;3013907;-74
2023/08/04 01:27:55;;;;;;;4.30;2.90;;;;;;;23.06;58.74;99174.82;78464;1295;3026334;-70
2023/08/04 01:30:24;;;;;;;4.20;3.50;;;;;;;23.03;59.20;99176.29;78353;1295;3050774;-71
2023/08/04 01:32:51;;;;;;;5.40;3.60;;;;;;;22.97;59.85;99173.73;79717;1298;3012951;-69
2023/08/04 01:35:17;;;;;;;7.20;3.80;;;;;;;22.92;60.09;99176.45;79539;1296;3013518;-73
2023/08/04 01:37:45;;;;;;;6.00;3.80;;;;;;;22.86;60.29;99178.40;78618;1295;3051625;-67
2023/08/04 01:40:12;;;;;;;4.80;3.60;;;;;;;22.83;60.06;99184.02;79685;1295;3013775;-71
2023/08/04 01:42:39;;;;;;;5.60;3.80;;;;;;;22.77;59.92;99181.79;79746;1295;3011961;-72
2023/08/04 01:45:07;;;;;;;5.40;3.80;;;;;;;22.75;59.97;99186.27;78560;1295;3026354;-71
2023/08/04 01:47:40;;;;;;;4.90;3.40;;;;;;;22.75;60.16;99188.77;79812;1295;3012940;-73
2023/08/04 01:50:08;;;;;;;6.00;3.70;;;;;;;22.76;60.02;99191.23;78548;1295;3051867;-73
2023/08/04 01:52:36;;;;;;;5.80;4.40;;;;;;;22.76;60.07;99190.83;79740;1295;3014383;-70
2023/08/04 01:55:02;;;;;;;5.70;4.00;;;;;;;22.75;60.34;99193.59;79663;1295;3011734;-70
2023/08/04 01:57:30;;;;;;;6.20;4.10;;;;;;;22.71;60.87;99201.23;78544;1298;3050554;-72
2023/08/04 01:59:57;;;;;;;6.10;4.00;;;;;;;22.67;60.82;99201.04;79809;1296;3018613;-67
2023/08/04 02:02:23;;;;;;;6.10;4.40;;;;;;;22.64;60.87;99199.91;79920;1298;3013298;-68
2023/08/04 02:04:51;;;;;;;5.90;3.90;;;;;;;22.63;60.56;99206.21;78371;1296;3025899;-70
2023/08/04 02:07:17;;;;;;;6.90;4.10;;;;;;;22.65;60.49;99206.48;79458;1298;3018451;-70
2023/08/04 02:09:45;;;;;;;7.90;3.60;;;;;;;22.65;60.46;99208.21;79803;1296;3011548;-69
2023/08/04 02:12:13;;;;;;;4.80;3.70;;;;;;;22.66;60.31;99215.61;78361;1296;3026022;-66
2023/08/04 02:14:39;;;;;;;5.30;3.60;;;;;;;22.67;60.15;99210.31;79723;1295;3018784;-69
2023/08/04 02:17:07;;;;;;;6.20;3.80;;;;;;;22.68;60.12;99211.58;79532;1298;3012279;-69
2023/08/04 02:19:35;;;;;;;5.30;4.40;;;;;;;22.69;60.35;99213.77;78536;1298;3052962;-68
2023/08/04 02:22:01;;;;;;;4.70;3.60;;;;;;;22.67;60.35;99213.56;79522;1296;3018357;-68
2023/08/04 02:24:27;;;;;;;6.00;3.80;;;;;;;22.69;60.23;99215.09;79518;1298;3011895;-70
2023/08/04 02:26:55;;;;;;;6.50;3.60;;;;;;;22.68;60.12;99217.20;78582;1292;3026030;-68
2023/08/04 02:29:22;;;;;;;5.10;3.30;;;;;;;22.64;60.13;99219.49;79610;1295;3013237;-69
2023/08/04 02:31:48;;;;;;;5.60;3.50;;;;;;;22.66;60.06;99222.36;79700;1293;3013173;-70
2023/08/04 02:34:17;;;;;;;5.90;3.70;;;;;;;22.67;60.20;99222.22;78671;1295;3026590;-68
2023/08/04 02:36:43;;;;;;;8.10;3.50;;;;;;;22.68;59.95;99222.89;79730;1295;3013020;-67
2023/08/04 02:39:10;;;;;;;4.70;3.50;;;;;;;22.66;59.69;99226.81;79897;1295;3011639;-69
2023/08/04 02:41:38;;;;;;;4.50;3.20;;;;;;;22.65;59.70;99228.60;78669;1297;3027923;-67
2023/08/04 02:44:06;;;;;;;4.70;3.10;;;;;;;22.66;59.59;99228.11;79883;1291;3019315;-69
2023/08/04 02:46:32;;;;;;;7.20;3.50;;;;;;;22.68;59.74;99229.98;79892;1292;3011613;-70
2023/08/04 02:49:01;;;;;;;5.60;3.20;;;;;;;22.68;59.69;99226.73;78571;1295;3053239;-67
2023/08/04 02:51:27;;;;;;;4.20;3.50;;;;;;;22.68;59.63;99227.01;79945;1292;3013494;-71
2023/08/04 02:53:54;;;;;;;3.70;2.90;;;;;;;22.69;59.22;99233.02;79837;1298;3011535;-69
2023/08/04 02:56:22;;;;;;;3.50;2.70;;;;;;;22.70;59.19;99237.60;78311;1292;3049367;-72
2023/08/04 02:58:48;;;;;;;5.70;2.90;;;;;;;22.72;59.18;99235.95;79892;1295;3013712;-72
2023/08/04 03:01:15;;;;;;;5.00;3.30;;;;;;;22.74;59.13;99240.29;79847;1295;3011607;-71
2023/08/04 03:03:43;;;;;;;4.40;3.00;;;;;;;22.80;59.35;99240.95;78668;1295;3027108;-68
2023/08/04 03:06:09;;;;;;;5.40;3.40;;;;;;;22.82;59.60;99243.79;79894;1292;3012871;-67
2023/08/04 03:08:36;;;;;;;4.70;3.60;;;;;;;22.83;59.57;99242.73;79830;1295;3012597;-70
2023/08/04 03:11:10;;;;;;;5.50;3.60;;;;;;;22.82;59.94;99251.38;78667;1292;3026068;-71
2023/08/04 03:13:39;;;;;;;6.70;3.40;;;;;;;22.78;60.37;99249.90;79481;1292;3011495;-68
2023/08/04 03:16:06;;;;;;;5.30;4.20;;;;;;;22.76;60.38;99252.63;80197;1295;3018377;-68
2023/08/04 03:18:32;;;;;;;6.70;4.90;;;;;;;22.76;60.57;99255.30;79862;1292;3012787;-71
2023/08/04 03:21:02;;;;;;;7.90;5.00;;;;;;;22.73;60.81;99257.42;78745;1299;3025751;-70
2023/08/04 03:23:29;;;;;;;8.20;4.60;;;;;;;22.74;60.87;99257.48;80094;1292;3011949;-69
2023/08/04 03:25:58;;;;;;;8.50;4.20;;;;;;;22.72;60.83;99254.13;77440;1293;3013640;-71
2023/08/04 03:28:25;;;;;;;6.70;4.90;;;;;;;22.70;60.93;99260.30;79934;1292;3012807;-70
2023/08/04 03:30:52;;;;;;;5.50;4.40;;;;;;;22.70;61.17;99260.48;79786;1295;3011628;-72
2023/08/04 03:33:19;;;;;;;11.40;5.10;;;;;;;22.68;61.48;99261.16;78689;1305;3025999;-75
2023/08/04 03:35:46;;;;;;;6.80;4.90;;;;;;;22.69;61.88;99257.72;79877;1295;3018628;-69
2023/08/04 03:38:13;;;;;;;10.10;6.30;;;;;;;22.73;61.75;99265.43;79808;1293;3011616;-72
2023/08/04 03:40:40;;;;;;;11.10;5.90;;;;;;;22.71;61.92;99266.81;78569;1298;3028093;-67
2023/08/04 03:43:07;;;;;;;8.80;5.90;;;;;;;22.69;62.31;99268.83;79982;1295;3018652;-70
2023/08/04 03:45:34;;;;;;;8.90;6.90;;;;;;;22.70;62.47;99267.24;79948;1293;3011566;-72
2023/08/04 03:48:02;;;;;;;11.20;7.10;;;;;;;22.73;62.39;99271.33;78660;1295;3027083;-71
2023/08/04 03:50:28;;;;;;;9.80;6.50;;;;;;;22.71;62.60;99273.14;79844;1297;3013632;-76
2023/08/04 03:52:55;;;;;;;8.60;6.00;;;;;;;22.68;62.83;99270.30;79858;1292;3013005;-72
2023/08/04 03:55:23;;;;;;;10.40;6.70;;;;;;;22.73;62.85;99270.45;78711;1292;3025989;-72
2023/08/04 03:57:49;;;;;;;10.00;6.30;;;;;;;22.77;62.84;99270.06;80029;1292;3012848;-71
2023/08/04 04:00:16;;;;;;;8.80;5.80;;;;;;;22.79;62.35;99272.44;79882;1292;3011953;-73
2023/08/04 04:02:44;;;;;;;7.90;5.80;;;;;;;22.84;62.29;99269.61;78836;1292;3027805;-69
2023/08/04 04:05:11;;;;;;;12.80;6.20;;;;;;;22.87;62.22;99276.76;79888;1295;3013489;-70
2023/08/04 04:07:37;;;;;;;9.00;5.50;;;;;;;22.88;62.29;99273.56;79836;1291;3013783;-69
2023/08/04 04:10:06;;;;;;;8.40;5.40;;;;;;;22.90;62.22;99271.84;78575;1291;3026167;-71
2023/08/04 04:12:35;;;;;;;7.60;4.80;;;;;;;22.94;62.42;99276.39;80089;1292;3013103;-71
2023/08/04 04:15:04;;;;;;;7.90;5.00;;;;;;;23.00;62.40;99277.70;79423;1292;3012850;-70
2023/08/04 04:17:31;;;;;;;6.70;4.70;;;;;;;23.05;62.18;99282.48;79912;1294;3013376;-73
2023/08/04 04:19:58;;;;;;;10.20;4.80;;;;;;;23.08;61.69;99281.23;79842;1292;3011884;-69
2023/08/04 04:22:25;;;;;;;7.70;4.90;;;;;;;23.15;61.71;99282.85;78686;1295;3051202;-71
2023/08/04 04:24:52;;;;;;;6.80;4.80;;;;;;;23.20;61.86;99284.89;79866;1293;3013015;-73
2023/08/04 04:27:18;;;;;;;10.20;4.90;;;;;;;23.26;61.28;99284.54;79940;1298;3011601;-71
2023/08/04 04:29:46;;;;;;;11.70;5.00;;;;;;;23.33;61.36;99284.70;78839;1291;3025381;-72
2023/08/04 04:32:13;;;;;;;8.90;4.60;;;;;;;23.38;61.48;99287.29;79889;1295;3013349;-71
2023/08/04 04:34:40;;;;;;;8.00;5.00;;;;;;;23.42;61.64;99287.02;80160;1295;3011279;-71
2023/08/04 04:37:08;;;;;;;6.00;4.70;;;;;;;23.46;61.48;99286.36;78811;1295;3051634;-71
2023/08/04 04:39:34;;;;;;;8.10;4.80;;;;;;;23.50;61.39;99288.76;80144;1295;3019033;-70
2023/08/04 04:42:02;;;;;;;10.90;5.30;;;;;;;23.53;61.16;99287.98;80131;1292;3011898;-73
2023/08/04 04:44:30;;;;;;;8.10;5.40;;;;;;;23.55;61.20;99288.48;78825;1292;3051149;-71
2023/08/04 04:46:57;;;;;;;7.70;5.10;;;;;;;23.59;61.30;99292.17;79855;1292;3011627;-70
2023/08/04 04:49:23;;;;;;;10.00;5.30;;;;;;;23.59;61.19;99294.27;79796;1292;3011905;-71
2023/08/04 04:51:51;;;;;;;11.70;5.50;;;;;;;23.61;61.38;99294.89;78752;1290;3026789;-70
2023/08/04 04:54:18;;;;;;;10.60;5.70;;;;;;;23.64;61.83;99294.19;80056;1297;3013231;-70
2023/08/04 04:56:45;;;;;;;12.60;6.00;;;;;;;23.75;61.50;99293.83;79825;1295;3012958;-70
2023/08/04 04:59:13;;;;;;;11.60;5.50;;;;;;;23.81;61.81;99286.65;78781;1292;3050807;-70
2023/08/04 05:01:40;;;;;;;8.20;6.10;;;;;;;23.88;61.53;99287.48;79993;1292;3011777;-69
2023/08/04 05:04:06;;;;;;;11.20;5.90;;;;;;;23.96;61.45;99286.73;79915;1292;3011554;-70
2023/08/04 05:06:34;;;;;;;11.70;5.80;;;;;;;24.06;61.51;99282.27;78838;1298;3027327;-71
2023/08/04 05:09:00;;;;;;;14.50;6.10;;;;;;;24.14;61.32;99282.39;80021;1295;3018844;-71
2023/08/04 05:11:27;;;;;;;12.00;6.10;;;;;;;24.19;61.37;99287.25;79927;1292;3011558;-71
2023/08/04 05:13:55;;;;;;;10.40;5.90;;;;;;;24.25;61.26;99284.70;78732;1292;3026192;-70
2023/08/04 05:16:21;;;;;;;12.20;5.80;;;;;;;24.33;61.24;99283.85;79975;1295;3013390;-72
2023/08/04 05:18:48;;;;;;;13.60;6.60;;;;;;;24.41;61.05;99284.86;79762;1298;3011526;-69
2023/08/04 05:21:16;;;;;;;11.90;5.90;;;;;;;24.51;60.59;99289.97;78792;1295;3028228;-71
2023/08/04 05:23:42;;;;;;;8.90;4.90;;;;;;;24.58;59.85;99291.02;79885;1291;3012911;-71
2023/08/04 05:26:09;;;;;;;10.80;4.60;;;;;;;24.65;59.01;99291.98;79936;1296;3011689;-69
2023/08/04 05:28:37;;;;;;;4.60;3.40;;;;;;;24.74;58.45;99291.63;78828;1298;3026175;-69
2023/08/04 05:31:04;;;;;;;7.30;3.70;;;;;;;24.82;57.72;99292.80;79953;1294;3018486;-70
2023/08/04 05:33:31;;;;;;;4.10;3.20;;;;;;;24.89;57.52;99296.39;80852;1291;3011393;-70
2023/08/04 05:35:59;;;;;;;4.10;3.30;;;;;;;24.95;57.22;99297.77;78063;1303;3052231;-72
2023/08/04 05:38:26;;;;;;;6.90;3.40;;;;;;;25.00;56.87;99299.15;79375;1303;3012978;-74
2023/08/04 05:40:54;;;;;;;6.50;3.40;;;;;;;25.07;56.70;99293.09;79340;1297;3011658;-69
2023/08/04 05:43:23;;;;;;;5.40;3.50;;;;;;;25.09;56.25;99293.27;78383;1298;3048169;-68
2023/08/04 05:45:50;;;;;;;6.20;3.30;;;;;;;25.17;56.30;99293.06;79443;1303;3011679;-70
2023/08/04 05:48:16;;;;;;;4.10;2.70;;;;;;;25.25;55.78;99297.32;79447;1298;3012650;-71
2023/08/04 05:50:44;;;;;;;8.50;3.60;;;;;;;25.33;55.45;99296.02;78125;1301;3052973;-68
2023/08/04 05:53:11;;;;;;;7.80;3.50;;;;;;;25.40;55.13;99295.63;79409;1299;3018232;-70
2023/08/04 05:55:37;;;;;;;7.40;3.30;;;;;;;25.47;54.65;99301.39;79293;1301;3011701;-72
2023/08/04 05:58:05;;;;;;;9.50;3.40;;;;;;;25.55;54.76;99300.01;78252;1303;3028334;-70
2023/08/04 06:00:32;;;;;;;6.70;3.40;;;;;;;25.62;55.17;99297.20;79391;1300;3013730;-71
2023/08/04 06:02:59;;;;;;;6.70;3.60;;;;;;;25.68;55.22;99295.09;79310;1304;3011959;-66
2023/08/04 06:05:27;;;;;;;6.80;3.40;;;;;;;25.75;55.52;99296.52;78101;1302;3053089;-71
2023/08/04 06:07:54;;;;;;;5.50;3.20;;;;;;;25.81;54.74;99295.52;79337;1302;3018824;-67
2023/08/04 06:10:20;;;;;;;7.60;3.70;;;;;;;25.84;54.03;99299.59;79296;1302;3011962;-70
2023/08/04 06:12:48;;;;;;;9.20;3.50;;;;;;;25.91;54.01;99300.55;78203;1301;3026439;-74
2023/08/04 06:15:15;;;;;;;9.20;3.40;;;;;;;25.99;54.04;99300.73;79233;1297;3020862;-68
2023/08/04 06:17:42;;;;;;;6.40;3.50;;;;;;;26.09;53.43;99307.20;79418;1301;3012809;-68
2023/08/04 06:20:10;;;;;;;6.40;4.00;;;;;;;26.15;53.15;99304.28;78244;1301;3028018;-71
2023/08/04 06:22:37;;;;;;;11.40;6.30;;;;;;;26.22;54.18;99304.20;79616;1301;3013465;-64
2023/08/04 06:25:04;;;;;;;11.70;6.10;;;;;;;26.27;54.59;99307.08;79270;1302;3011677;-74
2023/08/04 06:27:32;;;;;;;7.90;4.70;;;;;;;26.35;53.80;99308.08;78116;1301;3027833;-68
2023/08/04 06:30:00;;;;;;;6.60;3.40;;;;;;;26.40;52.58;99308.30;79388;1304;3013267;-69
2023/08/04 06:32:27;;;;;;;9.60;3.30;;;;;;;26.47;51.87;99312.36;79337;1301;3011589;-66
2023/08/04 06:34:55;;;;;;;6.60;3.60;;;;;;;26.54;51.23;99312.67;78129;1302;3054499;-67
2023/08/04 06:37:22;;;;;;;9.20;3.60;;;;;;;26.57;50.45;99315.92;79341;1297;3013069;-71
2023/08/04 06:39:49;;;;;;;9.60;3.90;;;;;;;26.60;49.74;99312.52;79404;1303;3013154;-66
2023/08/04 06:42:17;;;;;;;5.70;3.70;;;;;;;26.68;50.61;99311.94;78241;1304;3025879;-68
2023/08/04 06:44:44;;;;;;;5.60;3.60;;;;;;;26.76;50.03;99314.55;79473;1298;3013056;-69
2023/08/04 06:47:11;;;;;;;8.60;3.50;;;;;;;26.82;49.10;99311.85;79314;1303;3011955;-70
2023/08/04 06:49:39;;;;;;;9.30;4.60;;;;;;;26.88;49.58;99308.88;78422;1300;3028122;-71
2023/08/04 06:52:06;;;;;;;5.30;4.20;;;;;;;26.92;48.60;99314.81;79357;1299;3012924;-67
2023/08/04 06:54:34;;;;;;;13.20;5.80;;;;;;;26.96;48.98;99316.52;80198;1297;3011609;-70
2023/08/04 06:57:02;;;;;;;17.80;7.70;;;;;;;27.06;50.82;99316.68;78625;1298;3050999;-71
2023/08/04 06:59:28;;;;;;;17.70;8.70;;;;;;;27.10;52.02;99319.71;79223;1304;3013492;-71
2023/08/04 07:01:55;;;;;;;15.00;8.50;;;;;;;27.15;52.25;99320.02;79273;1303;3011980;-68
2023/08/04 07:04:23;;;;;;;15.80;8.00;;;;;;;27.21;52.37;99319.44;78288;1303;3027768;-67
2023/08/04 07:06:49;;;;;;;19.00;8.30;;;;;;;27.24;52.20;99320.64;79329;1304;3018392;-68
2023/08/04 07:09:16;;;;;;;19.10;8.50;;;;;;;27.22;52.07;99324.41;79461;1303;3011696;-66
2023/08/04 07:11:44;;;;;;;17.50;7.00;;;;;;;27.25;51.70;99318.36;78225;1298;3026036;-65
2023/08/04 07:14:10;;;;;;;15.50;7.40;;;;;;;27.28;51.62;99322.80;79485;1298;3013064;-71
2023/08/04 07:16:37;;;;;;;16.20;7.20;;;;;;;27.30;51.46;99323.02;79418;1301;3011733;-69
2023/08/04 07:19:04;;;;;;;16.40;7.00;;;;;;;27.35;51.24;99325.43;78123;1302;3025290;-63
2023/08/04 07:21:31;;;;;;;17.90;7.10;;;;;;;27.41;50.77;99328.45;79330;1299;3013833;-73
2023/08/04 07:23:58;;;;;;;13.40;7.30;;;;;;;27.49;50.63;99329.54;79428;1303;3011692;-65
2023/08/04 07:26:26;;;;;;;14.20;7.40;;;;;;;27.59;50.19;99336.09;78143;1304;3026217;-72
2023/08/04 07:28:53;;;;;;;18.30;7.10;;;;;;;27.65;49.94;99332.23;79466;1303;3013056;-68
2023/08/04 07:31:20;;;;;;;16.80;6.80;;;;;;;27.71;49.91;99336.55;79360;1300;3011672;-66
2023/08/04 07:33:47;;;;;;;10.30;6.40;;;;;;;27.78;49.41;99335.42;78256;1300;3052273;-67
2023/08/04 07:36:14;;;;;;;9.30;6.00;;;;;;;27.87;49.08;99339.98;79435;1302;3013626;-68
2023/08/04 07:38:40;;;;;;;16.90;7.30;;;;;;;27.92;48.28;99341.71;79475;1299;3011830;-69
2023/08/04 07:41:08;;;;;;;10.70;6.10;;;;;;;27.95;48.09;99337.56;78297;1298;3026659;-68
2023/08/04 07:43:35;;;;;;;9.80;5.70;;;;;;;28.03;48.27;99332.50;79488;1298;3013250;-72
2023/08/04 07:46:01;;;;;;;10.60;5.70;;;;;;;28.12;48.23;99332.54;79343;1301;3011679;-78
2023/08/04 07:48:29;;;;;;;18.10;6.40;;;;;;;28.19;48.32;99335.73;78125;1304;3027356;-72
2023/08/04 07:50:56;;;;;;;13.10;5.80;;;;;;;28.28;48.04;99335.70;79420;1303;3019145;-73
2023/08/04 07:53:23;;;;;;;15.60;5.90;;;;;;;28.38;47.76;99339.58;79271;1301;3011937;-71
2023/08/04 07:55:57;;;;;;;8.80;5.80;;;;;;;28.41;45.66;99336.37;78305;1297;3025946;-74
2023/08/04 07:58:26;;;;;;;14.30;5.70;;;;;;;28.48;45.41;99338.25;79234;1298;3011636;-74
2023/08/04 08:00:53;;;;;;;13.90;5.50;;;;;;;28.55;44.41;99339.39;79390;1298;3011434;-74
2023/08/04 08:03:19;;;;;;;14.80;6.30;;;;;;;28.63;43.82;99338.77;79508;1300;3011501;-76
2023/08/04 08:05:47;;;;;;;12.70;6.00;;;;;;;28.67;43.74;99334.33;78525;1303;3025801;-74
2023/08/04 08:08:16;;;;;;;12.40;6.00;;;;;;;28.69;42.79;99340.23;79562;1297;3014719;-73
2023/08/04 08:10:45;;;;;;;10.50;5.60;;;;;;;28.59;41.51;99342.91;78915;1296;3013409;-73
2023/08/04 08:13:12;;;;;;;12.80;5.60;;;;;;;28.65;41.87;99339.63;79406;1302;3013089;-75
2023/08/04 08:15:39;;;;;;;9.20;5.50;;;;;;;28.70;41.79;99338.29;79528;1298;3012940;-73
2023/08/04 08:18:06;;;;;;;9.50;5.30;;;;;;;28.81;41.20;99340.96;78201;1300;3027674;-72
2023/08/04 08:20:33;;;;;;;7.90;5.00;;;;;;;28.89;41.47;99342.46;79396;1304;3013206;-75
2023/08/04 08:22:59;;;;;;;8.20;3.90;;;;;;;28.89;39.86;99343.92;79433;1303;3011639;-72
2023/08/04 08:25:27;;;;;;;5.70;3.20;;;;;;;28.88;39.27;99342.22;78176;1303;3027169;-73
2023/08/04 08:27:55;;;;;;;7.40;3.30;;;;;;;28.98;40.26;99343.42;79400;1298;3012938;-70
2023/08/04 08:30:21;;;;;;;11.90;3.40;;;;;;;29.04;40.01;99343.55;79837;1298;3013361;-71
2023/08/04 08:32:49;;;;;;;7.90;3.10;;;;;;;29.05;39.27;99348.79;78274;1302;3050043;-65
2023/08/04 08:35:16;;;;;;;7.30;3.20;;;;;;;29.04;39.79;99353.09;79433;1300;3013155;-67
2023/08/04 08:37:42;;;;;;;4.70;3.00;;;;;;;29.02;39.41;99350.30;79520;1301;3013126;-72
2023/08/04 08:40:10;;;;;;;8.40;3.30;;;;;;;29.09;39.29;99346.77;78193;1298;3027227;-67
2023/08/04 08:42:38;;;;;;;9.30;3.30;;;;;;;29.15;39.26;99352.70;79526;1298;3013224;-69
2023/08/04 08:45:05;;;;;;;7.20;3.70;;;;;;;29.23;39.18;99351.85;79315;1298;3011776;-70
2023/08/04 14:01:45;;;;;;;8.20;3.60;;;;;;;36.91;26.46;99361.42;80224;1298;3013499;-65
2023/08/04 14:04:14;;;;;;;5.60;3.30;;;;;;;37.06;26.26;99361.86;77506;1301;3013032;-73
2023/08/04 14:06:40;;;;;;;7.10;3.40;;;;;;;37.11;26.75;99360.34;79323;1302;3011672;-67
2023/08/04 14:09:08;;;;;;;11.20;3.30;;;;;;;37.10;26.55;99354.86;78167;1303;3052255;-69
2023/08/04 14:11:35;;;;;;;11.70;3.70;;;;;;;37.10;26.46;99357.21;79315;1298;3013552;-73
2023/08/04 14:14:01;;;;;;;8.30;3.00;;;;;;;37.10;26.68;99360.66;79400;1301;3013455;-66
2023/08/04 14:16:29;;;;;;;5.50;3.00;;;;;;;37.13;26.35;99358.36;78283;1298;3017635;-64
2023/08/04 14:18:55;;;;;;;7.10;3.20;;;;;;;37.19;26.63;99357.05;79450;1300;3012591;-64
2023/08/04 14:21:22;;;;;;;5.50;2.60;;;;;;;37.41;26.58;99361.42;79510;1297;3014211;-64
2023/08/04 14:23:52;;;;;;;5.50;2.70;;;;;;;37.46;26.49;99358.58;78420;1301;3017932;-64
2023/08/04 14:26:18;;;;;;;8.70;2.70;;;;;;;37.40;26.85;99356.83;79367;1300;3011548;-65
2023/08/04 14:28:45;;;;;;;10.50;2.60;;;;;;;37.56;26.43;99355.23;79598;1298;3013263;-66
2023/08/04 14:31:13;;;;;;;6.20;2.60;;;;;;;37.70;26.27;99355.06;78317;1298;3041595;-64
2023/08/04 14:33:40;;;;;;;9.10;2.80;;;;;;;37.80;26.15;99355.51;79682;1298;3013896;-64
2023/08/04 14:36:07;;;;;;;7.90;2.90;;;;;;;37.96;25.82;99359.54;79563;1301;3015077;-68
2023/08/04 14:38:34;;;;;;;3.00;2.50;;;;;;;38.01;25.72;99353.99;78050;1301;3044680;-65
2023/08/04 14:41:01;;;;;;;3.80;2.40;;;;;;;37.96;26.23;99356.85;79371;1300;3012991;-67
2023/08/04 14:43:28;;;;;;;7.30;2.90;;;;;;;38.06;25.76;99360.84;79345;1299;3013189;-68
2023/08/04 14:45:55;;;;;;;4.30;2.30;;;;;;;37.90;25.73;99358.34;78178;1301;3019329;-64
2023/08/04 14:48:22;;;;;;;6.50;2.70;;;;;;;37.78;25.96;99359.35;79168;1300;3013121;-68
2023/08/04 14:50:48;;;;;;;5.90;2.80;;;;;;;37.83;26.15;99357.70;79373;1295;3013525;-67
2023/08/04 14:53:16;;;;;;;3.80;2.40;;;;;;;37.78;26.87;99360.39;78037;1301;3028222;-64
2023/08/04 14:55:43;;;;;;;7.40;2.70;;;;;;;37.77;27.08;99356.83;79368;1301;3013002;-63
2023/08/04 14:58:09;;;;;;;6.30;2.50;;;;;;;37.85;26.88;99361.76;79243;1295;3011719;-69
2023/08/04 15:00:37;;;;;;;4.90;2.10;;;;;;;37.87;26.59;99360.49;78209;1301;3017777;-64
2023/08/04 15:03:04;;;;;;;4.70;2.90;;;;;;;37.96;26.72;99359.44;79223;1298;3013120;-68
2023/08/04 15:05:33;;;;;;;7.00;2.40;;;;;;;37.80;27.16;99360.10;79432;1300;3013491;-66
2023/08/04 15:08:01;;;;;;;8.80;2.00;;;;;;;37.83;27.30;99358.20;78147;1301;3053240;-63
2023/08/04 15:10:28;;;;;;;3.70;2.50;;;;;;;37.90;27.62;99359.22;79286;1298;3013153;-66
2023/08/04 15:12:54;;;;;;;5.50;2.30;;;;;;;37.75;27.90;99355.95;79396;1297;3013976;-67
2023/08/04 15:15:22;;;;;;;6.60;2.40;;;;;;;37.55;28.10;99358.52;78237;1298;3017214;-66
2023/08/04 15:17:49;;;;;;;3.40;2.30;;;;;;;37.58;28.13;99357.42;79390;1300;3013585;-69
2023/08/04 15:20:15;;;;;;;8.70;2.40;;;;;;;37.80;27.50;99361.39;79406;1298;3013269;-68
2023/08/04 15:22:43;;;;;;;6.20;2.60;;;;;;;37.91;27.33;99367.01;78334;1301;3025879;-69
2023/08/04 15:25:10;;;;;;;6.60;2.70;;;;;;;37.96;27.14;99364.70;79442;1301;3019280;-68
2023/08/04 15:27:37;;;;;;;3.40;2.20;;;;;;;37.74;27.72;99361.52;79412;1300;3011460;-66
2023/08/04 15:30:06;;;;;;;7.40;2.50;;;;;;;37.80;28.03;99364.39;78535;1298;3026671;-70
2023/08/04 15:32:32;;;;;;;4.40;2.10;;;;;;;37.60;28.45;99366.14;79655;1296;3014317;-67
2023/08/04 15:35:00;;;;;;;12.70;2.80;;;;;;;37.53;28.60;99366.23;79443;1298;3013028;-69
2023/08/04 15:37:28;;;;;;;6.80;2.80;;;;;;;37.47;28.83;99368.23;78357;1301;3043967;-65
2023/08/04 15:39:54;;;;;;;6.20;2.80;;;;;;;37.54;28.78;99369.10;79685;1298;3013742;-72
2023/08/04 15:42:21;;;;;;;5.60;2.70;;;;;;;37.34;29.29;99373.58;79413;1298;3013965;-71
2023/08/04 15:44:49;;;;;;;7.80;2.60;;;;;;;37.41;29.06;99369.59;78340;1299;3018106;-67
2023/08/04 15:47:16;;;;;;;3.10;2.70;;;;;;;37.41;29.05;99365.54;79331;1302;3013418;-67
2023/08/04 15:49:42;;;;;;;6.50;2.60;;;;;;;37.47;29.18;99369.60;79482;1300;3011608;-71
2023/08/04 15:52:10;;;;;;;5.80;2.80;;;;;;;37.48;29.15;99370.69;78163;1298;3017457;-65
2023/08/04 15:54:37;;;;;;;6.20;2.20;;;;;;;37.38;29.41;99371.88;79631;1301;3013054;-66
2023/08/04 15:57:03;;;;;;;5.60;2.90;;;;;;;37.37;29.25;99373.14;79531;1298;3013077;-76
2023/08/04 15:59:31;;;;;;;6.40;2.90;;;;;;;37.35;29.27;99374.89;78435;1297;3017249;-66
2023/08/04 16:01:58;;;;;;;5.70;2.70;;;;;;;37.37;29.29;99373.02;79444;1301;3013457;-70
2023/08/04 16:04:24;;;;;;;4.90;2.50;;;;;;;37.23;29.43;99373.13;79333;1298;3012786;-67
2023/08/04 16:06:52;;;;;;;6.00;2.60;;;;;;;37.17;29.61;99370.26;78180;1299;3027239;-68
2023/08/04 16:09:19;;;;;;;4.00;2.80;;;;;;;37.13;29.68;99372.33;79388;1298;3018503;-71
2023/08/04 16:11:47;;;;;;;4.50;2.50;;;;;;;37.08;29.68;99374.13;79390;1301;3013334;-66
2023/08/04 16:14:14;;;;;;;6.10;2.30;;;;;;;37.05;29.70;99373.41;78096;1299;3040793;-61
2023/08/04 16:16:41;;;;;;;4.90;2.60;;;;;;;37.00;30.08;99372.42;79470;1300;3018639;-68
2023/08/04 16:19:08;;;;;;;2.80;2.40;;;;;;;36.89;30.32;99377.42;79379;1301;3013327;-65
2023/08/04 16:21:35;;;;;;;6.10;2.90;;;;;;;36.85;30.45;99382.82;78209;1300;3028022;-65
2023/08/04 16:24:02;;;;;;;3.20;2.70;;;;;;;36.67;30.84;99382.52;79299;1297;3019128;-67
2023/08/04 16:26:29;;;;;;;7.00;2.70;;;;;;;36.51;31.04;99383.83;79245;1298;3011615;-69
2023/08/04 16:28:57;;;;;;;3.70;2.50;;;;;;;36.27;31.36;99381.13;78126;1299;3026528;-66